Texico, Illinois
Current Conditions -  °F | °C
As of 11:55 PM on Wednesday 26 Nov 2014 (Local Time) from KMVN Reporting Station
Overcast Overcast  
Wind Chill: 32°   Ceiling: 500
Heat Index: 32°   Visibility: 5mi
Dew Point: 28°   Wind: 0mph
Humidity: 87%   Direction: NA
Pressure: 30.16"   Gusts: NA
Location:  38.44°N, 88.9°W
Report Text: KMVN 270555Z AUTO 00000KT 5SM BKN005 OVC018 00/M02 A3016 RMK AO1 10010 20000 400301070 52027
Loading
Personal Weather Stations






























Interactive Weather Map New forecast layout! Learn more

10-Day Weather Forecast

Advertisements
Track Severe Weather on mobile